• Join FlightAware (Why Join?)
  • Login
  • US Flag 
03:32PM EDT


 

Airport Tracker/Info


-or-


 

Live Flight TrackerFlight Track Log ✈ SKW6345 ✈ 06-Aug-2013 ✈ KBZN - KSFO

Flight Track Log - Related Links

Times and Time Zones

All times are in EDT time to prevent confusion due to time zone crossing. See the SKW6345 flight status page for this flight to view local times or setup timezone preferences in your user account.

Time Position Orientation Groundspeed Altitude Reporting Facility
EDT Latitude Longitude Course Direction KTS MPH feet Rate Location/Type
03:31PM 45.8022 -111.2169 229° Southwest 182 209 6,000  Level Salt Lake Center
03:32PM 45.7756 -111.2969 244° Southwest 223 257 8,500 1,920 Climbing Salt Lake Center
03:33PM 45.7453 -111.3839 244° Southwest 232 267 10,000 1,560 Climbing Salt Lake Center
03:34PM 45.4798 -111.6498 230° Southwest  Level Estimated
03:34PM 45.7328 -111.5222 263° West 281 323 11,800  Level Salt Lake Center
03:35PM 45.4050 -111.7734 229° Southwest  Level Estimated
03:35PM 45.7253 -111.6408 265° West 303 349 13,700  Level Salt Lake Center
03:36PM 45.3301 -111.8967 229° Southwest  Level Estimated
03:36PM 45.6775 -111.7442 237° Southwest 310 357 15,800  Level Salt Lake Center
03:37PM 45.6308 -111.8467 237° Southwest 310 357 17,600 1,260 Climbing Salt Lake Center
03:38PM 45.5842 -111.9503 237° Southwest 309 356 18,500 720 Climbing Salt Lake Center
03:39PM 45.5333 -112.0622 237° Southwest 330 380 19,200 900 Climbing Salt Lake Center
03:40PM 45.4672 -112.2039 236° Southwest 354 407 20,400 900 Climbing Salt Lake Center
03:41PM 45.4119 -112.3261 237° Southwest 362 417 21,100 660 Climbing Salt Lake Center
03:42PM 45.3539 -112.4492 236° Southwest 375 432 21,800 600 Climbing Salt Lake Center
03:43PM 45.2972 -112.5731 237° Southwest 386 444 22,400 720 Climbing Salt Lake Center
03:44PM 45.2292 -112.7183 236° Southwest 395 455 23,300 960 Climbing Salt Lake Center
03:45PM 45.1708 -112.8414 236° Southwest 394 453 24,500 960 Climbing Salt Lake Center
03:46PM 45.1025 -112.9847 236° Southwest 394 453 25,400 720 Climbing Salt Lake Center
03:47PM 45.0453 -113.1086 237° Southwest 394 453 26,000 540 Climbing Salt Lake Center
03:48PM 44.9744 -113.2561 236° Southwest 405 466 26,600 480 Climbing Salt Lake Center
03:49PM 44.9147 -113.3847 237° Southwest 410 472 27,000 480 Climbing Salt Lake Center
03:50PM 44.8397 -113.5356 235° Southwest 418 481 27,600 480 Climbing Salt Lake Center
03:51PM 44.7775 -113.6658 236° Southwest 420 483 28,100 480 Climbing Salt Lake Center
03:53PM 44.7044 -113.8178 236° Southwest 420 483 28,700 600 Climbing Salt Lake Center
03:54PM 44.6383 -113.9578 236° Southwest 420 483 29,400 540 Climbing Salt Lake Center
03:55PM 44.5728 -114.0847 234° Southwest 418 481 29,900 480 Climbing Salt Lake Center
03:56PM 44.5011 -114.2344 236° Southwest 415 478 30,500 480 Climbing Salt Lake Center
03:57PM 44.4392 -114.3614 236° Southwest 413 475 31,000 480 Climbing Salt Lake Center
03:58PM 44.3642 -114.5086 235° Southwest 415 478 31,500 480 Climbing Salt Lake Center
03:59PM 44.3017 -114.6344 235° Southwest 413 475 32,000 240 Climbing Salt Lake Center
04:00PM 44.2275 -114.7814 235° Southwest 414 476 32,000  Level Salt Lake Center
04:01PM 44.1625 -114.9108 235° Southwest 421 484 32,000  Level Salt Lake Center
04:02PM 44.0953 -115.0428 235° Southwest 432 497 32,000  Level Salt Lake Center
04:03PM 44.0169 -115.1953 234° Southwest 431 496 32,000  Level Salt Lake Center
04:04PM 43.9508 -115.3256 235° Southwest 429 494 32,000  Level Salt Lake Center
04:05PM 43.8722 -115.4775 234° Southwest 433 498 32,000  Level Salt Lake Center
04:06PM 43.8058 -115.6089 235° Southwest 433 498 32,000  Level Salt Lake Center
04:07PM 43.7261 -115.7614 234° Southwest 436 502 32,000  Level Salt Lake Center
04:08PM 43.6578 -115.8931 234° Southwest 438 504 32,000  Level Salt Lake Center
04:09PM 43.5789 -116.0444 234° Southwest 436 502 32,000  Level Salt Lake Center
04:10PM 43.5103 -116.1756 234° Southwest 439 505 32,000  Level Salt Lake Center
04:11PM 43.4411 -116.3061 234° Southwest 439 505 32,000  Level Salt Lake Center
04:12PM 43.3600 -116.4572 234° Southwest 439 505 32,000  Level Salt Lake Center
04:13PM 43.2900 -116.5881 234° Southwest 442 509 32,000  Level Salt Lake Center
04:14PM 43.2094 -116.7392 234° Southwest 441 507 32,000  Level Salt Lake Center
04:15PM 43.1394 -116.8667 233° Southwest 439 505 32,000  Level Salt Lake Center
04:16PM 43.0586 -117.0164 234° Southwest 438 504 32,000  Level Salt Lake Center
04:17PM 42.9900 -117.1439 234° Southwest 435 501 32,000  Level Salt Lake Center
04:18PM 42.9089 -117.2922 233° Southwest 435 501 32,000  Level Salt Lake Center
04:19PM 42.8389 -117.4186 233° Southwest 435 501 32,000  Level Salt Lake Center
04:20PM 42.7581 -117.5667 233° Southwest 437 503 32,000  Level Salt Lake Center
04:21PM 42.6881 -117.6919 233° Southwest 435 501 32,000  Level Salt Lake Center
04:23PM 42.6061 -117.8378 233° Southwest 435 501 32,000  Level Salt Lake Center
04:24PM 42.5097 -117.9214 213° Southwest 432 497 32,000  Level Salt Lake Center
04:25PM 42.4033 -117.9847 204° Southwest 436 502 32,000  Level Salt Lake Center
04:26PM 42.2803 -118.0589 204° Southwest 435 501 32,000  Level Salt Lake Center
04:27PM 42.1747 -118.1236 204° Southwest 430 495 32,000  Level Salt Lake Center
04:28PM 42.0522 -118.1989 205° Southwest 433 498 32,000  Level Salt Lake Center
04:29PM 41.9469 -118.2622 204° Southwest 434 499 32,000  Level Salt Lake Center
04:30PM 41.8239 -118.3347 204° Southwest 434 499 32,000  Level Salt Lake Center
04:31PM 41.7186 -118.3983 204° Southwest 434 499 32,000  Level Salt Lake Center
04:32PM 41.5969 -118.4697 204° Southwest 430 495 32,000  Level Salt Lake Center
04:33PM 41.4917 -118.5322 204° Southwest 430 495 32,000  Level Salt Lake Center
04:34PM 41.4017 -118.6236 217° Southwest 429 494 32,000  Level Salt Lake Center
04:35PM 41.3097 -118.7539 227° Southwest 432 497 32,000  Level Salt Lake Center
04:36PM 41.2306 -118.8617 226° Southwest 428 493 32,000  Level Salt Lake Center
04:37PM 41.1383 -118.9883 226° Southwest 428 493 32,000  Level Salt Lake Center
04:38PM 41.0581 -119.0967 226° Southwest 430 495 32,000  Level Salt Lake Center
04:39PM 40.9653 -119.2219 226° Southwest 428 493 32,000  Level Salt Lake Center
04:40PM 40.8839 -119.3286 225° Southwest 428 493 32,000  Level Salt Lake Center
04:41PM 40.7886 -119.4575 226° Southwest 428 493 32,000  Level Salt Lake Center
04:42PM 40.7061 -119.5669 225° Southwest 424 488 32,000  Level Salt Lake Center
04:43PM 40.6219 -119.6786 225° Southwest 428 493 32,000  Level Salt Lake Center
04:44PM 40.5403 -119.7867 225° Southwest 421 484 32,000  Level Salt Lake Center
04:45PM 40.4567 -119.8975 225° Southwest 425 489 32,000  Level Salt Lake Center
04:46PM 40.3728 -120.0064 225° Southwest 424 488 32,000  Level Salt Lake Center
04:47PM 40.2733 -120.1364 225° Southwest 423 487 32,000  Level Salt Lake Center
04:48PM 40.1897 -120.2458 225° Southwest 425 489 32,000  Level Salt Lake Center
04:50PM 40.0922 -120.3753 225° Southwest 420 483 32,000  Level Oakland Center
04:51PM 40.0042 -120.4858 224° Southwest 416 479 32,000  Level Oakland Center
04:52PM 39.9211 -120.5928 225° Southwest 419 482 32,000  Level Oakland Center
04:53PM 39.8375 -120.6994 224° Southwest 421 484 32,000  Level Oakland Center
04:54PM 39.7542 -120.8056 224° Southwest 420 483 32,000  Level Oakland Center
04:55PM 39.6706 -120.9103 224° Southwest 419 482 32,000  Level Oakland Center
04:56PM 39.5697 -121.0378 224° Southwest 421 484 32,000  Level Oakland Center
04:57PM 39.4861 -121.1442 224° Southwest 423 487 32,000  Level Oakland Center
04:58PM 39.4031 -121.2492 224° Southwest 420 483 32,000  Level Oakland Center
04:59PM 39.3189 -121.3547 224° Southwest 423 487 32,000  Level Oakland Center
05:00PM 39.2361 -121.4592 224° Southwest 419 482 32,000  Level Oakland Center
05:01PM 39.1525 -121.5631 224° Southwest 419 482 32,000  Level Oakland Center
05:02PM 39.0683 -121.6672 224° Southwest 421 484 32,000  Level Oakland Center
05:03PM 38.9675 -121.7919 224° Southwest 422 486 32,000  Level Oakland Center
05:04PM 38.8828 -121.8958 224° Southwest 423 487 32,000  Level Oakland Center
05:05PM 38.8006 -121.9983 224° Southwest 417 480 32,000 -60 Level Oakland Center
05:06PM 38.7169 -122.1000 224° Southwest 417 480 31,900 -1,500 Descending Oakland Center
05:07PM 38.6214 -122.2150 223° Southwest 426 490 29,000 -2,880 Descending Oakland Center
05:08PM 38.5339 -122.3214 224° Southwest 435 501 26,000 -1,920 Descending Oakland Center
05:09PM 38.4483 -122.4247 223° Southwest 428 493 25,100 -1,020 Descending Oakland Center
05:10PM 38.3622 -122.5283 223° Southwest 427 491 24,000 -2,040 Descending Oakland Center
05:11PM 38.2733 -122.6333 223° Southwest 435 501 21,000 -2,940 Descending Oakland Center
05:12PM 38.1892 -122.7300 222° Southwest 422 486 18,000 -2,880 Descending Oakland Center
05:13PM 38.0853 -122.7328 181° South 389 448 15,100 -2,880 Descending Oakland Center
05:14PM 37.9608 -122.6928 166° South 391 450 12,200 -2,040 Descending Oakland Center
05:15PM 37.8714 -122.6414 156° South 377 434 11,000 -840 Descending Oakland Center
05:16PM 37.8333 -122.6000 139° Southeast 322 371 10,900  Descending Northern Cal TRACON
05:17PM 37.7667 -122.5333 142° Southeast 285 328 11,000  Climbing Northern Cal TRACON
05:18PM 37.7333 -122.4500 117° Southeast 243 280 11,000 -60 Level Northern Cal TRACON
05:19PM 37.7000 -122.3833 122° Southeast 220 253 10,900 -1,320 Descending Northern Cal TRACON
05:20PM 37.6833 -122.3000 104° East 229 264 8,400 -2,520 Descending Northern Cal TRACON
05:21PM 37.6500 -122.2167 117° Southeast 237 273 5,700 -1,740 Descending Northern Cal TRACON
05:22PM 37.6333 -122.1667 113° Southeast 225 259 5,000 -960 Descending Northern Cal TRACON
05:23PM 37.5833 -122.1167 142° Southeast 202 232 3,900 -1,020 Descending Northern Cal TRACON
05:24PM 37.5667 -122.1667 247° West 198 228 3,000 -840 Descending Northern Cal TRACON
05:25PM 37.5667 -122.2333 270° West 183 211 2,300 -840 Descending Northern Cal TRACON
05:26PM 37.5833 -122.2833 293° West 156 180 1,300 -900 Descending Northern Cal TRACON
05:27PM 37.6000 -122.3333 293° West 130 150 500 -840 Descending Northern Cal TRACON